Time;durP1;ratioP1;P1;durP2;ratioP2;P2;SDS_P1;SDS_P2;PMS_P1;PMS_P2;Temp;Humidity;BMP_temperature;BMP_pressure;BME280_temperature;BME280_humidity;BME280_pressure;Samples;Min_cycle;Max_cycle;Signal;HPM_P1;HPM_P2
2023/04/12 04:02:17;;;;;;;0.60;0.10;;;10.60;99.90;;;;;;5194548;23;20522;-77
2023/04/12 04:04:45;;;;;;;0.60;0.10;;;10.50;99.90;;;;;;4932196;29;20440;-78
2023/04/12 04:07:13;;;;;;;0.60;0.10;;;12.40;99.90;;;;;;4939843;29;20444;-79
2023/04/12 04:09:41;;;;;;;0.60;0.10;;;10.30;99.90;;;;;;4940183;29;20480;-79
2023/04/12 04:12:09;;;;;;;0.60;0.10;;;10.20;99.90;;;;;;4942152;29;20481;-79
2023/04/12 04:14:37;;;;;;;0.60;0.10;;;10.20;99.90;;;;;;4942795;29;20858;-77
2023/04/12 04:17:04;;;;;;;0.60;0.10;;;10.20;99.90;;;;;;4961711;23;20492;-76
2023/04/12 04:19:34;;;;;;;0.60;0.43;;;10.10;99.90;;;;;;4918166;29;20450;-76
2023/04/12 04:22:01;;;;;;;0.60;0.10;;;10.10;99.90;;;;;;4916993;29;20454;-77
2023/04/12 04:24:30;;;;;;;0.60;0.10;;;10.00;99.90;;;;;;4915656;29;20449;-76
2023/04/12 04:26:58;;;;;;;0.60;0.10;;;10.00;99.90;;;;;;4917792;29;20870;-76
2023/04/12 04:29:27;;;;;;;0.60;0.10;;;10.10;99.90;;;;;;4916529;29;20520;-76
2023/04/12 04:31:56;;;;;;;7.87;7.20;;;10.10;99.90;;;;;;4912600;29;20476;-76
2023/04/12 04:34:24;;;;;;;0.60;0.10;;;10.10;99.90;;;;;;4915536;29;20460;-77
2023/04/12 04:36:53;;;;;;;0.60;0.10;;;10.10;99.90;;;;;;4917500;29;20484;-76
2023/04/12 04:39:21;;;;;;;0.60;0.10;;;10.10;99.90;;;;;;4917518;29;20464;-75
2023/04/12 04:41:53;;;;;;;0.60;0.10;;;10.00;99.90;;;;;;4916033;29;20551;-76
2023/04/12 04:44:21;;;;;;;0.60;0.10;;;10.00;99.90;;;;;;4916901;29;20456;-77
2023/04/12 04:46:50;;;;;;;0.60;0.10;;;9.90;99.90;;;;;;4916969;29;20465;-77
2023/04/12 04:49:18;;;;;;;0.60;0.10;;;9.90;99.90;;;;;;4916388;29;20484;-78
2023/04/12 04:51:46;;;;;;;0.60;0.10;;;10.00;99.90;;;;;;4917486;29;20450;-77
2023/04/12 04:54:17;;;;;;;0.60;0.10;;;9.90;99.90;;;;;;4918755;29;20453;-78
2023/04/12 04:56:45;;;;;;;0.60;0.10;;;10.00;99.90;;;;;;4919088;29;20477;-76
2023/04/12 04:59:13;;;;;;;0.60;0.10;;;10.00;99.90;;;;;;4915184;29;20476;-76
2023/04/12 05:01:41;;;;;;;0.60;0.10;;;10.00;99.90;;;;;;4911864;29;20466;-77
2023/04/12 05:04:09;;;;;;;0.60;0.10;;;10.00;99.90;;;;;;4916014;29;20950;-76
2023/04/12 05:06:37;;;;;;;0.60;0.10;;;9.90;99.90;;;;;;4906069;29;20511;-77
2023/04/12 05:09:05;;;;;;;0.60;0.10;;;9.90;99.90;;;;;;4897920;29;20481;-76
2023/04/12 05:11:34;;;;;;;1.00;0.40;;;9.90;99.90;;;;;;4899947;29;20453;-76
2023/04/12 05:14:02;;;;;;;0.60;0.10;;;9.80;99.90;;;;;;4919498;29;20444;-76
2023/04/12 05:16:30;;;;;;;0.60;0.10;;;9.80;99.90;;;;;;4919703;29;20555;-76
2023/04/12 05:18:58;;;;;;;0.60;0.40;;;9.70;99.90;;;;;;4920828;29;20444;-75
2023/04/12 05:21:27;;;;;;;0.50;0.10;;;9.60;99.90;;;;;;4920354;29;20508;-75
2023/04/12 05:23:55;;;;;;;0.60;0.10;;;9.60;99.90;;;;;;4922461;29;20474;-75
2023/04/12 05:26:23;;;;;;;0.60;0.10;;;9.50;99.90;;;;;;4932695;29;20451;-75
2023/04/12 05:28:52;;;;;;;0.60;0.10;;;9.60;99.90;;;;;;4916754;29;20485;-78
2023/04/12 05:31:20;;;;;;;0.60;0.10;;;;;;;;;;4921290;29;20460;-74
2023/04/12 05:33:49;;;;;;;0.60;0.10;;;9.60;99.90;;;;;;4917254;29;20448;-77
2023/04/12 05:36:17;;;;;;;0.60;0.10;;;9.50;99.90;;;;;;4913223;29;20462;-76
2023/04/12 05:38:45;;;;;;;0.60;0.20;;;9.60;99.90;;;;;;4902728;29;20493;-79
2023/04/12 05:41:13;;;;;;;0.50;0.10;;;9.60;99.90;;;;;;4921059;29;20477;-78
2023/04/12 05:43:41;;;;;;;0.60;0.10;;;9.60;99.90;;;;;;4919915;29;20476;-78
2023/04/12 05:46:10;;;;;;;0.60;0.10;;;;;;;;;;4918049;29;20460;-79
2023/04/12 05:48:39;;;;;;;0.53;0.10;;;9.60;99.90;;;;;;4921260;29;20508;-75
2023/04/12 05:51:07;;;;;;;0.60;0.10;;;9.60;99.90;;;;;;4919854;29;20516;-77
2023/04/12 05:53:35;;;;;;;0.50;0.10;;;9.60;99.90;;;;;;4920686;29;20453;-76
2023/04/12 05:56:03;;;;;;;0.70;0.30;;;9.50;99.90;;;;;;4920196;29;20454;-76
2023/04/12 05:58:32;;;;;;;0.50;0.10;;;9.50;99.90;;;;;;4919733;29;20476;-75
2023/04/12 06:01:00;;;;;;;0.60;0.10;;;9.60;99.90;;;;;;4920238;29;20459;-76
2023/04/12 06:03:30;;;;;;;0.60;0.10;;;9.50;99.90;;;;;;4919717;29;20493;-75
2023/04/12 06:05:58;;;;;;;0.60;0.10;;;9.40;99.90;;;;;;4919640;29;20810;-76
2023/04/12 06:08:28;;;;;;;0.50;0.10;;;9.50;99.90;;;;;;4914256;29;20570;-75
2023/04/12 06:10:56;;;;;;;0.60;0.30;;;9.50;99.90;;;;;;4910376;29;20487;-77
2023/04/12 06:13:23;;;;;;;0.50;0.10;;;9.40;99.90;;;;;;4919047;29;20534;-77
2023/04/12 06:15:51;;;;;;;0.57;0.10;;;9.40;99.90;;;;;;4920160;29;20460;-76
2023/04/12 06:18:19;;;;;;;0.50;0.10;;;;;;;;;;4919813;29;20515;-76
2023/04/12 06:20:48;;;;;;;0.60;0.13;;;9.40;99.90;;;;;;4918690;29;20503;-75
2023/04/12 06:23:18;;;;;;;0.50;0.10;;;9.40;99.90;;;;;;4920841;29;20458;-76
2023/04/12 06:25:46;;;;;;;0.57;0.10;;;9.40;99.90;;;;;;4899943;29;20458;-76
2023/04/12 06:28:15;;;;;;;0.50;0.23;;;9.40;99.90;;;;;;4912843;29;20593;-76
2023/04/12 06:30:43;;;;;;;0.50;0.10;;;9.40;99.90;;;;;;4919123;29;20481;-76
2023/04/12 06:33:11;;;;;;;0.50;0.10;;;9.50;99.90;;;;;;4918358;29;20810;-76
2023/04/12 06:35:39;;;;;;;0.60;0.37;;;9.50;99.90;;;;;;4919535;29;20506;-76
2023/04/12 06:38:08;;;;;;;0.50;0.10;;;9.50;99.90;;;;;;4919797;29;20485;-76
2023/04/12 06:40:36;;;;;;;0.60;0.10;;;12.30;99.90;;;;;;4905257;29;20481;-76
2023/04/12 06:43:04;;;;;;;0.50;0.10;;;9.40;99.90;;;;;;4901076;29;20451;-77
2023/04/12 06:45:31;;;;;;;0.50;0.10;;;9.50;99.90;;;;;;4900907;29;20447;-76
2023/04/12 06:47:59;;;;;;;0.50;0.10;;;9.50;99.90;;;;;;4900277;29;20469;-77
2023/04/12 06:50:27;;;;;;;0.60;0.10;;;9.50;99.90;;;;;;4901412;29;20558;-76
2023/04/12 06:52:55;;;;;;;0.50;0.10;;;9.50;99.90;;;;;;4901063;29;20469;-76
2023/04/12 06:55:25;;;;;;;0.50;0.10;;;9.50;99.90;;;;;;4902586;29;20744;-75
2023/04/12 06:57:53;;;;;;;0.50;0.10;;;9.50;99.90;;;;;;4915298;29;20951;-76
2023/04/12 07:00:22;;;;;;;0.50;0.10;;;9.50;99.90;;;;;;4920343;29;20529;-76
2023/04/12 07:02:50;;;;;;;0.50;0.10;;;9.50;99.90;;;;;;4914263;29;20457;-76
2023/04/12 07:05:18;;;;;;;0.50;0.10;;;9.50;99.90;;;;;;4900810;29;20818;-76
2023/04/12 07:07:45;;;;;;;0.50;0.10;;;9.50;99.90;;;;;;4910052;29;20485;-77
2023/04/12 07:10:15;;;;;;;0.60;0.10;;;9.50;99.90;;;;;;4919198;29;20448;-77
2023/04/12 07:12:44;;;;;;;0.50;0.10;;;9.50;99.90;;;;;;4918484;29;20441;-78
2023/04/12 07:15:12;;;;;;;0.50;0.10;;;9.60;99.90;;;;;;4918680;29;20460;-75
2023/04/12 07:17:40;;;;;;;0.50;0.10;;;9.60;99.90;;;;;;4918691;29;20488;-75
2023/04/12 07:20:09;;;;;;;1.23;1.13;;;9.70;99.90;;;;;;4919244;29;20516;-76
2023/04/12 07:22:37;;;;;;;0.50;0.10;;;9.70;99.90;;;;;;4919043;29;20519;-82
2023/04/12 07:25:08;;;;;;;0.50;0.30;;;9.60;99.90;;;;;;4917625;29;20452;-75
2023/04/12 07:27:36;;;;;;;0.50;0.10;;;9.60;99.90;;;;;;4917665;29;20472;-76
2023/04/12 07:30:07;;;;;;;0.60;0.30;;;;;;;;;;4921532;29;20448;-76
2023/04/12 07:32:36;;;;;;;0.50;0.10;;;9.60;99.90;;;;;;4923716;29;20543;-78
2023/04/12 07:35:05;;;;;;;0.50;0.10;;;9.60;1.00;;;;;;4924226;29;20520;-78
2023/04/12 07:37:33;;;;;;;0.50;0.10;;;9.60;1.00;;;;;;4923308;29;20476;-75
2023/04/12 07:40:01;;;;;;;0.60;0.10;;;9.60;1.00;;;;;;4919711;29;20526;-76
2023/04/12 07:42:30;;;;;;;0.50;0.10;;;9.60;1.00;;;;;;4920392;29;20453;-77
2023/04/12 07:44:58;;;;;;;0.50;0.10;;;9.60;1.00;;;;;;4920638;29;20511;-76
2023/04/12 07:47:27;;;;;;;0.50;0.10;;;9.70;1.00;;;;;;4919128;29;20524;-78
2023/04/12 07:49:56;;;;;;;0.50;0.10;;;9.60;1.00;;;;;;4920271;29;20529;-77
2023/04/12 07:52:25;;;;;;;0.50;0.10;;;9.70;1.00;;;;;;4919642;29;20528;-76
2023/04/12 07:54:53;;;;;;;0.50;0.10;;;10.70;1.00;;;;;;4918708;29;20540;-76
2023/04/12 07:57:22;;;;;;;0.50;0.20;;;;;;;;;;4918717;29;21006;-75
2023/04/12 07:59:50;;;;;;;0.70;0.47;;;9.70;1.00;;;;;;4920229;29;20459;-77
2023/04/12 08:02:23;;;;;;;0.50;0.10;;;9.70;1.00;;;;;;4918757;29;21098;-77
2023/04/12 08:04:53;;;;;;;0.50;0.10;;;9.70;1.00;;;;;;4919704;29;20611;-76
2023/04/12 08:07:22;;;;;;;0.50;0.10;;;9.80;1.00;;;;;;4920637;29;20465;-76
2023/04/12 08:09:51;;;;;;;0.50;0.10;;;9.80;1.00;;;;;;4919729;29;20440;-76
2023/04/12 08:12:20;;;;;;;0.50;0.10;;;;;;;;;;4920019;29;20859;-77
2023/04/12 08:14:48;;;;;;;0.50;0.10;;;9.90;1.00;;;;;;4915338;29;20495;-76
2023/04/12 08:17:15;;;;;;;0.50;0.10;;;9.90;1.00;;;;;;4917085;29;20532;-75
2023/04/12 08:19:43;;;;;;;0.50;0.10;;;9.80;1.00;;;;;;4917466;29;20948;-76
2023/04/12 08:22:13;;;;;;;0.50;0.20;;;9.80;1.00;;;;;;4917274;29;20485;-77
2023/04/12 08:24:40;;;;;;;0.50;0.10;;;9.90;1.00;;;;;;4917160;29;20505;-76
2023/04/12 08:27:10;;;;;;;0.50;0.10;;;10.00;1.00;;;;;;4917403;29;20488;-76
2023/04/12 08:29:38;;;;;;;0.50;0.20;;;10.00;1.00;;;;;;4917548;29;20862;-75
2023/04/12 08:32:08;;;;;;;0.50;0.10;;;;;;;;;;4917538;29;20450;-76
2023/04/12 08:34:37;;;;;;;0.50;0.10;;;10.00;1.00;;;;;;4917032;29;20453;-77
2023/04/12 08:37:05;;;;;;;0.50;0.10;;;10.10;1.00;;;;;;4917237;29;20480;-77
2023/04/12 08:39:36;;;;;;;0.60;0.20;;;10.10;1.00;;;;;;4917298;29;20556;-76
2023/04/12 08:42:04;;;;;;;0.50;0.10;;;10.10;1.00;;;;;;4916708;29;20486;-77
2023/04/12 08:44:38;;;;;;;0.50;0.10;;;10.20;1.00;;;;;;4916433;29;20481;-76
2023/04/12 08:47:07;;;;;;;0.50;0.10;;;10.10;1.00;;;;;;4918452;29;20472;-80
2023/04/12 08:49:35;;;;;;;0.50;0.10;;;10.20;1.00;;;;;;4923360;29;20448;-78
2023/04/12 08:52:05;;;;;;;0.50;0.10;;;10.20;1.00;;;;;;4921766;29;20461;-76
2023/04/12 08:54:35;;;;;;;0.50;0.10;;;10.20;1.00;;;;;;4921747;29;20479;-77
2023/04/12 08:57:06;;;;;;;0.50;0.10;;;10.20;1.00;;;;;;4921038;29;20563;-76
2023/04/12 08:59:37;;;;;;;0.60;0.10;;;10.20;1.00;;;;;;4921039;29;20443;-78
2023/04/12 09:02:06;;;;;;;0.50;0.10;;;10.20;1.00;;;;;;4921114;29;20527;-76
2023/04/12 09:04:47;;;;;;;0.50;0.10;;;10.20;1.00;;;;;;4921125;29;20458;-76
2023/04/12 09:07:15;;;;;;;0.50;0.10;;;10.10;1.00;;;;;;4922196;29;20524;-75
2023/04/12 09:09:46;;;;;;;0.50;0.20;;;10.10;1.00;;;;;;4921822;29;20473;-75
2023/04/12 09:12:14;;;;;;;0.50;0.10;;;10.20;1.00;;;;;;4923696;29;20441;-76
2023/04/12 09:14:43;;;;;;;0.50;0.10;;;;;;;;;;4923355;29;20464;-76
2023/04/12 09:17:24;;;;;;;0.50;0.10;;;10.20;1.00;;;;;;4922215;29;20484;-76
2023/04/12 09:19:54;;;;;;;0.50;0.20;;;10.20;1.00;;;;;;4922709;29;20968;-78
2023/04/12 09:22:33;;;;;;;0.60;0.10;;;10.20;1.00;;;;;;4923063;29;20485;-76
2023/04/12 09:25:03;;;;;;;0.50;0.10;;;10.30;1.00;;;;;;4923422;29;20452;-76
2023/04/12 09:27:46;;;;;;;3.60;1.63;;;10.40;1.00;;;;;;4923005;29;20511;-75
2023/04/12 09:30:15;;;;;;;0.50;0.10;;;10.40;1.00;;;;;;4922944;29;20460;-76
2023/04/12 09:32:43;;;;;;;0.50;0.10;;;10.30;1.00;;;;;;4922066;29;21084;-77
2023/04/12 09:35:11;;;;;;;0.50;0.10;;;10.40;1.00;;;;;;4904550;29;20533;-77
2023/04/12 09:37:39;;;;;;;0.50;0.10;;;10.50;1.00;;;;;;4904113;29;20475;-76
2023/04/12 09:40:10;;;;;;;0.50;0.10;;;10.50;1.00;;;;;;4910152;29;20540;-78
2023/04/12 09:42:52;;;;;;;0.50;0.10;;;10.50;1.00;;;;;;4919474;29;20484;-79
2023/04/12 09:45:22;;;;;;;0.50;0.10;;;10.50;1.00;;;;;;4910991;29;20532;-76
2023/04/12 09:47:51;;;;;;;0.50;0.10;;;10.50;1.00;;;;;;4907121;29;20496;-76
2023/04/12 09:50:23;;;;;;;0.60;0.10;;;10.60;1.00;;;;;;4919378;29;20457;-76
2023/04/12 09:52:53;;;;;;;0.50;0.20;;;10.70;1.00;;;;;;4919215;29;20534;-78
2023/04/12 09:55:24;;;;;;;0.50;0.10;;;10.70;1.00;;;;;;4919138;29;20473;-77
2023/04/12 09:57:53;;;;;;;0.50;0.10;;;10.80;1.00;;;;;;4919930;29;20493;-80
2023/04/12 10:00:24;;;;;;;0.50;0.10;;;10.80;1.00;;;;;;4919336;29;20486;-77
2023/04/12 10:02:55;;;;;;;0.50;0.10;;;10.90;1.00;;;;;;4920396;29;20521;-77
2023/04/12 10:05:25;;;;;;;0.60;0.10;;;;;;;;;;4921357;29;20544;-79
2023/04/12 10:07:56;;;;;;;0.60;0.10;;;10.90;1.00;;;;;;4920981;29;20466;-76
2023/04/12 10:10:25;;;;;;;0.60;0.10;;;11.00;1.00;;;;;;4923548;29;20517;-77
2023/04/12 10:12:53;;;;;;;0.60;0.10;;;11.10;1.00;;;;;;4920776;29;20971;-77
2023/04/12 10:15:21;;;;;;;0.50;0.10;;;11.10;1.00;;;;;;4919528;29;20461;-80
2023/04/12 10:17:51;;;;;;;0.50;0.10;;;11.20;1.00;;;;;;4921786;29;20573;-77
2023/04/12 10:20:20;;;;;;;0.60;0.10;;;11.20;1.00;;;;;;4921119;29;20455;-78
2023/04/12 10:22:49;;;;;;;0.50;0.10;;;14.60;1.00;;;;;;4920913;29;20515;-79
2023/04/12 10:25:19;;;;;;;0.57;0.10;;;11.20;1.00;;;;;;4924772;29;20453;-79
2023/04/12 10:27:49;;;;;;;0.60;0.10;;;11.20;1.00;;;;;;4925226;29;20851;-78
2023/04/12 10:30:22;;;;;;;0.60;0.10;;;11.20;1.00;;;;;;4926095;29;20509;-78
2023/04/12 10:33:11;;;;;;;0.50;0.10;;;11.20;1.00;;;;;;4924388;29;20454;-78
2023/04/12 10:36:01;;;;;;;0.60;0.10;;;11.30;1.00;;;;;;4925005;29;20485;-78
2023/04/12 10:38:45;;;;;;;0.50;0.20;;;11.40;1.00;;;;;;4924080;29;20481;-77
2023/04/12 10:41:15;;;;;;;1.07;0.97;;;11.40;1.00;;;;;;4922050;29;20453;-78
2023/04/12 10:43:46;;;;;;;0.50;0.10;;;11.50;1.00;;;;;;4923778;29;20455;-77
2023/04/12 10:46:47;;;;;;;0.60;0.10;;;11.40;1.00;;;;;;4925224;29;20461;-79
2023/04/12 10:49:16;;;;;;;0.60;0.10;;;11.40;1.00;;;;;;4920033;29;20820;-76
2023/04/12 10:52:12;;;;;;;0.60;0.10;;;11.50;1.00;;;;;;4923046;29;20517;-76
2023/04/12 10:54:40;;;;;;;0.60;0.10;;;11.50;1.00;;;;;;4925732;29;20450;-78
2023/04/12 10:57:07;;;;;;;0.60;0.17;;;11.60;1.00;;;;;;4931113;29;20470;-76
2023/04/12 10:59:56;;;;;;;0.53;0.10;;;11.60;1.00;;;;;;4933543;29;20449;-77
2023/04/12 11:02:26;;;;;;;0.70;0.60;;;11.60;1.00;;;;;;4920801;29;20482;-77
2023/04/12 11:05:08;;;;;;;0.53;0.10;;;11.60;1.00;;;;;;4918617;29;20561;-76
2023/04/12 11:07:40;;;;;;;0.60;0.10;;;11.60;1.00;;;;;;4918896;29;20465;-76
2023/04/12 11:10:16;;;;;;;0.60;0.30;;;11.50;1.00;;;;;;4919904;29;21021;-76
2023/04/12 11:12:49;;;;;;;0.60;0.30;;;11.60;1.00;;;;;;4918603;29;20797;-78
2023/04/12 11:15:18;;;;;;;0.60;0.33;;;11.60;1.00;;;;;;4917926;29;20461;-77
2023/04/12 11:17:54;;;;;;;0.50;0.10;;;11.60;1.00;;;;;;4917610;29;20577;-78
2023/04/12 11:20:22;;;;;;;0.50;0.10;;;11.70;1.00;;;;;;4918731;29;20492;-77
2023/04/12 11:22:51;;;;;;;2.20;0.67;;;11.70;1.00;;;;;;4921838;29;20491;-77
2023/04/12 11:25:19;;;;;;;0.60;0.10;;;11.90;1.00;;;;;;4920325;29;20458;-77
2023/04/12 11:27:52;;;;;;;0.60;0.20;;;11.90;1.00;;;;;;4921613;29;20472;-78
2023/04/12 11:30:22;;;;;;;0.57;0.10;;;11.90;1.00;;;;;;4921196;29;20461;-77
2023/04/12 11:32:50;;;;;;;0.60;0.10;;;12.00;1.00;;;;;;4937866;29;20605;-78
2023/04/12 11:35:23;;;;;;;0.60;0.10;;;12.10;1.00;;;;;;4923054;29;20454;-78
2023/04/12 11:37:51;;;;;;;0.60;0.10;;;12.10;1.00;;;;;;4917610;29;20843;-78
2023/04/12 11:40:22;;;;;;;0.60;0.10;;;12.20;1.00;;;;;;4917674;29;20862;-78
2023/04/12 11:42:50;;;;;;;0.60;0.10;;;12.30;1.00;;;;;;4920755;29;20481;-78
2023/04/12 11:45:21;;;;;;;0.60;0.10;;;12.30;1.00;;;;;;4918925;29;20482;-77
2023/04/12 11:47:50;;;;;;;0.60;0.10;;;12.30;1.00;;;;;;4918644;29;20855;-79
2023/04/12 11:50:29;;;;;;;0.60;0.10;;;12.40;1.00;;;;;;4918436;29;20450;-75
2023/04/12 11:53:09;;;;;;;0.60;0.27;;;12.40;1.00;;;;;;4917979;29;20439;-79
2023/04/12 11:55:37;;;;;;;0.60;0.10;;;12.60;1.00;;;;;;4917520;29;20562;-77
2023/04/12 11:58:06;;;;;;;0.60;0.10;;;12.60;1.00;;;;;;4917757;29;21006;-77
2023/04/12 12:00:35;;;;;;;0.60;0.10;;;12.60;1.00;;;;;;4917881;29;20456;-77
2023/04/12 12:03:03;;;;;;;0.60;0.10;;;12.70;1.00;;;;;;4917594;29;20476;-80
2023/04/12 12:05:37;;;;;;;0.60;0.10;;;12.70;1.00;;;;;;4917516;29;20491;-78
2023/04/12 12:08:06;;;;;;;1.33;0.50;;;12.80;1.00;;;;;;4918148;29;20579;-78
2023/04/12 12:10:35;;;;;;;0.60;0.20;;;12.80;1.00;;;;;;4917297;29;20496;-77
2023/04/12 12:13:23;;;;;;;0.60;0.10;;;12.80;1.00;;;;;;4917597;29;20503;-77
2023/04/12 12:15:53;;;;;;;0.70;0.63;;;12.80;1.00;;;;;;4916679;29;20452;-77
2023/04/12 12:18:26;;;;;;;0.83;0.63;;;12.70;1.00;;;;;;4916190;29;20472;-78
2023/04/12 12:20:54;;;;;;;0.60;0.10;;;12.70;1.00;;;;;;4897775;29;20460;-77
2023/04/12 12:23:30;;;;;;;0.90;0.27;;;12.80;1.00;;;;;;4914946;29;20482;-78
2023/04/12 12:25:58;;;;;;;0.60;0.20;;;12.90;1.00;;;;;;4916167;29;20459;-79
2023/04/12 12:28:48;;;;;;;0.60;0.10;;;12.90;1.00;;;;;;4917993;29;20460;-79
2023/04/12 12:31:23;;;;;;;0.60;0.10;;;12.90;1.00;;;;;;4918299;29;20812;-79
2023/04/12 12:33:55;;;;;;;0.90;0.67;;;;;;;;;;4918347;29;20515;-76
2023/04/12 12:36:30;;;;;;;0.70;0.20;;;13.10;1.00;;;;;;4917116;29;20546;-77
2023/04/12 12:39:05;;;;;;;0.60;0.10;;;13.20;1.00;;;;;;4918514;29;20453;-78
2023/04/12 12:41:33;;;;;;;1.03;0.30;;;13.20;1.00;;;;;;4917570;29;20452;-75
2023/04/12 12:44:01;;;;;;;0.80;0.30;;;13.20;1.00;;;;;;4917140;29;20491;-76
2023/04/12 12:46:30;;;;;;;0.60;0.10;;;13.20;1.00;;;;;;4917310;29;20853;-77
2023/04/12 12:49:19;;;;;;;0.80;0.50;;;;;;;;;;4917592;29;20442;-76
2023/04/12 12:51:47;;;;;;;0.60;0.17;;;13.20;99.90;;;;;;4920514;29;20466;-82
2023/04/12 12:54:16;;;;;;;0.90;0.63;;;13.20;1.00;;;;;;4918944;29;20472;-77
2023/04/12 12:57:03;;;;;;;0.60;0.30;;;13.20;99.90;;;;;;4917409;29;20543;-79
2023/04/12 12:59:32;;;;;;;1.60;1.50;;;13.20;1.00;;;;;;4918653;29;20472;-77
2023/04/12 13:02:01;;;;;;;0.53;0.10;;;;;;;;;;4918626;29;20458;-77
2023/04/12 13:04:29;;;;;;;0.60;0.10;;;13.30;1.00;;;;;;4918267;29;20487;-77
2023/04/12 13:06:58;;;;;;;0.60;0.10;;;13.20;1.00;;;;;;4917755;29;20478;-77
2023/04/12 13:09:26;;;;;;;0.70;0.40;;;13.30;1.00;;;;;;4921245;29;20462;-77
2023/04/12 13:11:55;;;;;;;0.60;0.10;;;13.20;1.00;;;;;;4923124;29;20856;-77
2023/04/12 13:14:24;;;;;;;0.70;0.40;;;;;;;;;;4924165;29;20447;-77
2023/04/12 13:16:55;;;;;;;1.20;0.77;;;13.10;1.00;;;;;;4925035;29;20539;-77
2023/04/12 13:19:25;;;;;;;0.60;0.10;;;;;;;;;;4925887;29;20969;-81
2023/04/12 13:21:53;;;;;;;0.63;0.23;;;13.00;1.00;;;;;;4923674;29;20520;-76
2023/04/12 13:24:21;;;;;;;0.60;0.10;;;12.90;1.00;;;;;;4921685;29;20686;-77
2023/04/12 13:26:49;;;;;;;0.60;0.10;;;12.80;1.00;;;;;;4922990;29;20479;-77
2023/04/12 13:29:19;;;;;;;0.70;0.43;;;12.90;1.00;;;;;;4922695;29;20463;-77
2023/04/12 13:31:47;;;;;;;0.60;0.10;;;12.90;1.00;;;;;;4923412;29;20454;-79
2023/04/12 13:34:15;;;;;;;0.60;0.30;;;12.90;1.00;;;;;;4925633;29;20452;-77
2023/04/12 13:36:47;;;;;;;0.60;0.10;;;12.90;1.00;;;;;;4928905;29;20479;-78
2023/04/12 13:39:15;;;;;;;0.70;0.23;;;12.90;1.00;;;;;;4927679;29;20453;-76
2023/04/12 13:41:43;;;;;;;0.60;0.10;;;12.90;1.00;;;;;;4926766;29;20875;-76
2023/04/12 13:44:11;;;;;;;2.30;1.40;;;12.90;1.00;;;;;;4923405;29;20581;-78
2023/04/12 13:46:39;;;;;;;0.60;0.10;;;12.90;1.00;;;;;;4920847;29;20574;-78
2023/04/12 13:49:08;;;;;;;0.60;0.20;;;13.00;1.00;;;;;;4920917;29;20480;-77
2023/04/12 13:51:36;;;;;;;0.60;0.10;;;13.10;1.00;;;;;;4922378;29;20463;-78
2023/04/12 13:54:06;;;;;;;0.60;0.10;;;13.30;1.00;;;;;;4921032;29;20968;-77
2023/04/12 13:56:33;;;;;;;0.60;0.10;;;13.50;1.00;;;;;;4922216;29;20476;-78
2023/04/12 13:59:02;;;;;;;0.60;0.10;;;13.60;1.00;;;;;;4923384;29;20546;-76
2023/04/12 14:01:30;;;;;;;0.60;0.10;;;13.70;1.00;;;;;;4921815;29;20468;-78
2023/04/12 14:03:58;;;;;;;0.60;0.20;;;13.80;1.00;;;;;;4921251;29;20582;-77
2023/04/12 14:06:26;;;;;;;0.60;0.10;;;13.80;1.00;;;;;;4920117;29;20452;-77
2023/04/12 14:08:54;;;;;;;0.60;0.30;;;13.70;99.90;;;;;;4920103;29;20982;-77
2023/04/12 14:11:24;;;;;;;4.10;0.60;;;13.80;99.90;;;;;;4920167;29;20475;-79
2023/04/12 14:13:53;;;;;;;0.70;0.53;;;13.80;99.90;;;;;;4920380;29;20460;-77
2023/04/12 14:16:21;;;;;;;1.10;1.03;;;13.60;99.90;;;;;;4920217;29;20464;-78
2023/04/12 14:18:49;;;;;;;0.60;0.10;;;13.50;99.90;;;;;;4919887;29;20484;-77
2023/04/12 14:21:17;;;;;;;0.60;0.10;;;13.50;99.90;;;;;;4921502;29;20494;-78
2023/04/12 14:23:45;;;;;;;0.60;0.20;;;13.50;99.90;;;;;;4921483;29;20497;-77
2023/04/12 14:26:15;;;;;;;0.60;0.10;;;13.60;99.90;;;;;;4920875;29;20452;-78
2023/04/12 14:28:45;;;;;;;0.50;0.10;;;13.60;99.90;;;;;;4922006;29;20464;-76
2023/04/12 14:31:13;;;;;;;0.60;0.20;;;13.60;99.90;;;;;;4920936;29;20451;-77
2023/04/12 14:33:42;;;;;;;2.20;1.30;;;13.60;1.00;;;;;;4921315;29;20816;-78
2023/04/12 14:36:10;;;;;;;0.60;0.10;;;13.50;99.90;;;;;;4920733;29;20452;-76
2023/04/12 14:38:38;;;;;;;0.60;0.20;;;13.40;99.90;;;;;;4921206;29;20472;-79
2023/04/12 14:41:08;;;;;;;0.60;0.30;;;13.40;99.90;;;;;;4920165;29;20451;-78
2023/04/12 14:43:35;;;;;;;0.77;0.40;;;13.20;99.90;;;;;;4920475;29;20480;-78
2023/04/12 14:46:05;;;;;;;0.60;0.10;;;13.10;99.90;;;;;;4920457;29;20459;-78
2023/04/12 14:48:33;;;;;;;0.60;0.40;;;13.10;99.90;;;;;;4920143;29;21002;-77
2023/04/12 14:51:03;;;;;;;0.80;0.73;;;13.20;99.90;;;;;;4920104;29;20542;-77
2023/04/12 14:53:31;;;;;;;0.80;0.67;;;13.10;99.90;;;;;;4919595;29;20812;-76
2023/04/12 14:56:01;;;;;;;0.60;0.20;;;13.00;99.90;;;;;;4919974;29;20874;-76
2023/04/12 14:58:29;;;;;;;0.60;0.10;;;13.00;99.90;;;;;;4920610;29;20472;-77
2023/04/12 15:00:59;;;;;;;0.90;0.50;;;13.00;99.90;;;;;;4920967;29;20441;-77
2023/04/12 15:03:32;;;;;;;0.60;0.20;;;12.90;99.90;;;;;;4920256;29;20487;-77
2023/04/12 15:06:00;;;;;;;0.60;0.20;;;13.00;99.90;;;;;;4920309;29;20432;-78
2023/04/12 15:08:28;;;;;;;0.60;0.10;;;13.00;99.90;;;;;;4919841;29;20484;-77
2023/04/12 15:10:56;;;;;;;0.60;0.20;;;13.00;99.90;;;;;;4918817;29;20465;-77
2023/04/12 15:13:26;;;;;;;0.60;0.10;;;13.10;99.90;;;;;;4919823;29;20461;-76
2023/04/12 15:16:00;;;;;;;0.60;0.10;;;13.10;99.90;;;;;;4919541;29;20793;-79
2023/04/12 15:18:30;;;;;;;0.60;0.10;;;13.10;99.90;;;;;;4919363;29;20486;-79
2023/04/12 15:20:59;;;;;;;0.60;0.10;;;13.60;99.90;;;;;;4920579;29;20441;-76
2023/04/12 15:23:27;;;;;;;0.60;0.20;;;;;;;;;;4920086;29;20452;-77
2023/04/12 15:25:58;;;;;;;0.60;0.10;;;13.60;99.90;;;;;;4919376;29;20835;-78
2023/04/12 15:28:26;;;;;;;0.70;0.23;;;13.70;99.90;;;;;;4919015;29;20491;-78
2023/04/12 15:30:55;;;;;;;0.60;0.10;;;13.50;99.90;;;;;;4919309;29;20452;-77
2023/04/12 15:33:24;;;;;;;0.60;0.10;;;13.60;99.90;;;;;;4916885;29;20476;-78
2023/04/12 15:35:56;;;;;;;0.60;0.10;;;13.60;99.90;;;;;;4901603;29;20536;-78
2023/04/12 15:38:24;;;;;;;0.60;0.10;;;13.60;99.90;;;;;;4912272;29;20480;-78
2023/04/12 15:40:55;;;;;;;0.60;0.20;;;13.60;99.90;;;;;;4919950;29;20457;-77
2023/04/12 15:43:24;;;;;;;0.60;0.27;;;13.60;99.90;;;;;;4919535;29;20554;-77
2023/04/12 15:45:53;;;;;;;0.60;0.10;;;13.60;99.90;;;;;;4919780;29;20700;-77
2023/04/12 15:48:22;;;;;;;0.60;0.30;;;13.60;99.90;;;;;;4919908;29;20509;-79
2023/04/12 15:50:51;;;;;;;0.70;0.30;;;13.50;99.90;;;;;;4921161;29;20490;-78
2023/04/12 15:53:22;;;;;;;0.60;0.10;;;13.40;99.90;;;;;;4921155;29;20464;-77
2023/04/12 15:55:53;;;;;;;0.60;0.10;;;13.20;99.90;;;;;;4919289;29;20966;-77
2023/04/12 15:58:23;;;;;;;0.60;0.10;;;13.10;99.90;;;;;;4920358;29;20469;-78
2023/04/12 16:00:52;;;;;;;0.60;0.10;;;13.20;99.90;;;;;;4902698;29;20456;-77
2023/04/12 16:03:21;;;;;;;0.60;0.20;;;13.10;99.90;;;;;;4901638;29;20438;-76
2023/04/12 16:05:52;;;;;;;4.27;3.03;;;13.00;99.90;;;;;;4902645;29;20492;-78
2023/04/12 16:08:21;;;;;;;1.17;0.27;;;13.20;99.90;;;;;;4911600;29;20563;-77
2023/04/12 16:10:50;;;;;;;0.60;0.10;;;13.20;99.90;;;;;;4920678;29;20452;-77
2023/04/12 16:13:18;;;;;;;1.20;0.40;;;13.20;99.90;;;;;;4920242;29;20508;-77
2023/04/12 16:15:46;;;;;;;0.60;0.40;;;13.20;99.90;;;;;;4921104;29;20542;-75
2023/04/12 16:18:16;;;;;;;1.27;0.33;;;13.20;99.90;;;;;;4920574;29;20892;-77
2023/04/12 16:20:47;;;;;;;0.60;0.20;;;13.20;99.90;;;;;;4918833;29;20447;-79
2023/04/12 16:23:15;;;;;;;0.60;0.10;;;13.40;99.90;;;;;;4918858;29;20857;-76
2023/04/12 16:25:46;;;;;;;0.60;0.10;;;13.60;99.90;;;;;;4919151;29;20487;-78
2023/04/12 16:28:16;;;;;;;0.60;0.20;;;13.80;99.90;;;;;;4918432;29;20498;-77
2023/04/12 16:30:45;;;;;;;0.60;0.10;;;;;;;;;;4918836;29;20910;-77
2023/04/12 16:33:13;;;;;;;0.70;0.27;;;14.20;99.90;;;;;;4915731;29;20452;-78
2023/04/12 16:35:42;;;;;;;0.60;0.10;;;;;;;;;;4898514;29;20445;-79
2023/04/12 16:38:10;;;;;;;0.60;0.10;;;14.50;99.90;;;;;;4906101;29;20476;-77
2023/04/12 16:40:38;;;;;;;0.60;0.30;;;14.60;99.90;;;;;;4917773;29;20865;-76
2023/04/12 16:43:09;;;;;;;0.60;0.10;;;14.70;99.90;;;;;;4918179;29;20474;-78
2023/04/12 16:45:37;;;;;;;0.80;0.60;;;14.90;99.90;;;;;;4917626;29;20481;-78
2023/04/12 16:48:05;;;;;;;0.60;0.20;;;14.80;99.90;;;;;;4917783;29;20473;-77
2023/04/12 16:50:33;;;;;;;0.60;0.10;;;14.90;99.90;;;;;;4918672;29;20458;-78
2023/04/12 16:53:02;;;;;;;0.60;0.20;;;14.80;99.90;;;;;;4918058;29;21022;-77
2023/04/12 16:55:30;;;;;;;0.60;0.20;;;14.70;99.90;;;;;;4919661;29;20446;-79
2023/04/12 16:57:58;;;;;;;0.60;0.20;;;14.60;99.90;;;;;;4918607;29;20466;-76
2023/04/12 17:00:28;;;;;;;0.70;0.50;;;14.30;99.90;;;;;;4918797;29;20463;-78
2023/04/12 17:02:56;;;;;;;0.60;0.20;;;14.20;99.90;;;;;;4917765;29;20451;-77
2023/04/12 17:05:24;;;;;;;1.10;0.40;;;14.10;99.90;;;;;;4920043;29;20487;-81
2023/04/12 17:07:53;;;;;;;0.70;0.20;;;13.90;99.90;;;;;;4923102;29;20502;-79
2023/04/12 17:10:24;;;;;;;0.60;0.10;;;13.70;99.90;;;;;;4927738;29;20965;-79
2023/04/12 17:12:54;;;;;;;0.70;0.30;;;13.70;99.90;;;;;;4925516;29;20452;-79
2023/04/12 17:15:24;;;;;;;0.60;0.10;;;13.60;99.90;;;;;;4924591;29;20490;-81